sensor_id;sensor_type;location;lat;lon;timestamp;temperature;humidity
46900;DHT22;32647;49.382;7.078;2024-02-26T00:00:56;7.10;99.90
46900;DHT22;32647;49.382;7.078;2024-02-26T00:03:42;7.00;99.90
46900;DHT22;32647;49.382;7.078;2024-02-26T00:06:31;7.00;99.90
46900;DHT22;32647;49.382;7.078;2024-02-26T00:09:17;6.80;99.90
46900;DHT22;32647;49.382;7.078;2024-02-26T00:12:03;6.70;99.90
46900;DHT22;32647;49.382;7.078;2024-02-26T00:14:49;6.60;99.90
46900;DHT22;32647;49.382;7.078;2024-02-26T00:17:35;6.50;99.90
46900;DHT22;32647;49.382;7.078;2024-02-26T00:20:21;6.40;99.90
46900;DHT22;32647;49.382;7.078;2024-02-26T00:23:07;6.40;99.90
46900;DHT22;32647;49.382;7.078;2024-02-26T00:25:53;6.40;99.90
46900;DHT22;32647;49.382;7.078;2024-02-26T00:28:39;6.30;99.90
46900;DHT22;32647;49.382;7.078;2024-02-26T00:31:25;6.20;99.90
46900;DHT22;32647;49.382;7.078;2024-02-26T00:34:11;6.20;99.90
46900;DHT22;32647;49.382;7.078;2024-02-26T00:36:57;6.20;99.90
46900;DHT22;32647;49.382;7.078;2024-02-26T00:39:43;6.20;99.90
46900;DHT22;32647;49.382;7.078;2024-02-26T00:42:30;6.10;99.90
46900;DHT22;32647;49.382;7.078;2024-02-26T00:45:16;6.10;99.90
46900;DHT22;32647;49.382;7.078;2024-02-26T00:48:02;6.10;99.90
46900;DHT22;32647;49.382;7.078;2024-02-26T00:50:51;6.00;99.90
46900;DHT22;32647;49.382;7.078;2024-02-26T00:53:37;6.00;99.90
46900;DHT22;32647;49.382;7.078;2024-02-26T00:56:23;6.00;99.90
46900;DHT22;32647;49.382;7.078;2024-02-26T00:59:08;6.00;99.90
46900;DHT22;32647;49.382;7.078;2024-02-26T01:01:54;6.00;99.90
46900;DHT22;32647;49.382;7.078;2024-02-26T01:04:40;6.00;99.90
46900;DHT22;32647;49.382;7.078;2024-02-26T01:07:26;6.00;99.90
46900;DHT22;32647;49.382;7.078;2024-02-26T01:10:12;6.00;99.90
46900;DHT22;32647;49.382;7.078;2024-02-26T01:12:58;6.00;99.90
46900;DHT22;32647;49.382;7.078;2024-02-26T01:15:44;6.00;99.90
46900;DHT22;32647;49.382;7.078;2024-02-26T01:18:30;5.90;99.90
46900;DHT22;32647;49.382;7.078;2024-02-26T01:21:16;5.90;99.90
46900;DHT22;32647;49.382;7.078;2024-02-26T01:24:02;5.90;99.90
46900;DHT22;32647;49.382;7.078;2024-02-26T01:26:48;5.90;99.90
46900;DHT22;32647;49.382;7.078;2024-02-26T01:29:34;5.90;99.90
46900;DHT22;32647;49.382;7.078;2024-02-26T01:32:20;5.80;99.90
46900;DHT22;32647;49.382;7.078;2024-02-26T01:35:06;5.80;99.90
46900;DHT22;32647;49.382;7.078;2024-02-26T01:37:56;5.80;99.90
46900;DHT22;32647;49.382;7.078;2024-02-26T01:40:42;5.80;99.90
46900;DHT22;32647;49.382;7.078;2024-02-26T01:43:28;5.80;99.90
46900;DHT22;32647;49.382;7.078;2024-02-26T01:46:14;5.80;99.90
46900;DHT22;32647;49.382;7.078;2024-02-26T01:49:02;5.80;99.90
46900;DHT22;32647;49.382;7.078;2024-02-26T01:51:49;5.80;99.90
46900;DHT22;32647;49.382;7.078;2024-02-26T01:54:37;5.80;99.90
46900;DHT22;32647;49.382;7.078;2024-02-26T01:57:23;5.70;99.90
46900;DHT22;32647;49.382;7.078;2024-02-26T02:00:10;5.70;99.90
46900;DHT22;32647;49.382;7.078;2024-02-26T02:02:56;5.70;99.90
46900;DHT22;32647;49.382;7.078;2024-02-26T02:05:42;5.70;99.90
46900;DHT22;32647;49.382;7.078;2024-02-26T02:08:28;5.70;99.90
46900;DHT22;32647;49.382;7.078;2024-02-26T02:11:15;5.60;99.90
46900;DHT22;32647;49.382;7.078;2024-02-26T02:14:01;5.50;99.90
46900;DHT22;32647;49.382;7.078;2024-02-26T02:16:47;5.50;99.90
46900;DHT22;32647;49.382;7.078;2024-02-26T02:19:33;5.50;99.90
46900;DHT22;32647;49.382;7.078;2024-02-26T02:22:19;5.50;99.90
46900;DHT22;32647;49.382;7.078;2024-02-26T02:25:05;5.50;99.90
46900;DHT22;32647;49.382;7.078;2024-02-26T02:27:55;5.50;99.90
46900;DHT22;32647;49.382;7.078;2024-02-26T02:30:41;5.50;99.90
46900;DHT22;32647;49.382;7.078;2024-02-26T02:33:27;5.50;99.90
46900;DHT22;32647;49.382;7.078;2024-02-26T02:36:13;5.50;99.90
46900;DHT22;32647;49.382;7.078;2024-02-26T02:38:59;5.50;99.90
46900;DHT22;32647;49.382;7.078;2024-02-26T02:41:45;5.50;99.90
46900;DHT22;32647;49.382;7.078;2024-02-26T02:44:31;5.50;99.90
46900;DHT22;32647;49.382;7.078;2024-02-26T02:47:17;5.40;99.90
46900;DHT22;32647;49.382;7.078;2024-02-26T02:50:03;5.50;99.90
46900;DHT22;32647;49.382;7.078;2024-02-26T02:52:49;5.40;99.90
46900;DHT22;32647;49.382;7.078;2024-02-26T02:55:35;5.40;99.90
46900;DHT22;32647;49.382;7.078;2024-02-26T02:58:21;5.50;99.90
46900;DHT22;32647;49.382;7.078;2024-02-26T03:01:07;5.40;99.90
46900;DHT22;32647;49.382;7.078;2024-02-26T03:03:53;5.40;99.90
46900;DHT22;32647;49.382;7.078;2024-02-26T03:06:39;5.50;99.90
46900;DHT22;32647;49.382;7.078;2024-02-26T03:09:25;5.40;99.90
46900;DHT22;32647;49.382;7.078;2024-02-26T03:12:11;5.50;99.90
46900;DHT22;32647;49.382;7.078;2024-02-26T03:14:57;5.40;99.90
46900;DHT22;32647;49.382;7.078;2024-02-26T03:17:43;5.40;99.90
46900;DHT22;32647;49.382;7.078;2024-02-26T03:20:29;5.40;99.90
46900;DHT22;32647;49.382;7.078;2024-02-26T03:23:15;5.40;99.90
46900;DHT22;32647;49.382;7.078;2024-02-26T03:26:06;5.40;99.90
46900;DHT22;32647;49.382;7.078;2024-02-26T03:28:51;5.40;99.90
46900;DHT22;32647;49.382;7.078;2024-02-26T03:31:37;5.40;99.90
46900;DHT22;32647;49.382;7.078;2024-02-26T03:34:23;5.40;99.90
46900;DHT22;32647;49.382;7.078;2024-02-26T03:37:09;5.40;99.90
46900;DHT22;32647;49.382;7.078;2024-02-26T03:39:56;5.40;99.90
46900;DHT22;32647;49.382;7.078;2024-02-26T03:42:43;5.40;99.90
46900;DHT22;32647;49.382;7.078;2024-02-26T03:45:29;5.40;99.90
46900;DHT22;32647;49.382;7.078;2024-02-26T03:48:15;5.40;99.90
46900;DHT22;32647;49.382;7.078;2024-02-26T03:51:01;5.40;99.90
46900;DHT22;32647;49.382;7.078;2024-02-26T03:53:47;5.30;99.90
46900;DHT22;32647;49.382;7.078;2024-02-26T03:56:33;5.30;99.90
46900;DHT22;32647;49.382;7.078;2024-02-26T03:59:19;5.40;99.90
46900;DHT22;32647;49.382;7.078;2024-02-26T04:02:05;5.40;99.90
46900;DHT22;32647;49.382;7.078;2024-02-26T04:04:51;5.30;99.90
46900;DHT22;32647;49.382;7.078;2024-02-26T04:07:37;5.30;99.90
46900;DHT22;32647;49.382;7.078;2024-02-26T04:10:23;5.30;99.90
46900;DHT22;32647;49.382;7.078;2024-02-26T04:13:09;5.30;99.90
46900;DHT22;32647;49.382;7.078;2024-02-26T04:15:55;5.30;99.90
46900;DHT22;32647;49.382;7.078;2024-02-26T04:18:41;5.30;99.90
46900;DHT22;32647;49.382;7.078;2024-02-26T04:21:28;5.30;99.90
46900;DHT22;32647;49.382;7.078;2024-02-26T04:24:14;5.30;99.90
46900;DHT22;32647;49.382;7.078;2024-02-26T04:26:59;5.30;99.90
46900;DHT22;32647;49.382;7.078;2024-02-26T04:29:45;5.30;99.90
46900;DHT22;32647;49.382;7.078;2024-02-26T04:32:31;5.40;99.90
46900;DHT22;32647;49.382;7.078;2024-02-26T04:35:17;5.30;99.90
46900;DHT22;32647;49.382;7.078;2024-02-26T04:38:03;5.30;99.90
46900;DHT22;32647;49.382;7.078;2024-02-26T04:40:49;5.30;99.90
46900;DHT22;32647;49.382;7.078;2024-02-26T04:43:36;5.30;99.90
46900;DHT22;32647;49.382;7.078;2024-02-26T04:46:27;5.30;99.90
46900;DHT22;32647;49.382;7.078;2024-02-26T04:49:14;5.40;99.90
46900;DHT22;32647;49.382;7.078;2024-02-26T04:51:59;5.40;99.90
46900;DHT22;32647;49.382;7.078;2024-02-26T04:54:45;5.30;99.90
46900;DHT22;32647;49.382;7.078;2024-02-26T04:57:31;5.40;99.90
46900;DHT22;32647;49.382;7.078;2024-02-26T05:00:17;5.40;99.90
46900;DHT22;32647;49.382;7.078;2024-02-26T05:03:04;5.30;99.90
46900;DHT22;32647;49.382;7.078;2024-02-26T05:05:50;5.40;99.90
46900;DHT22;32647;49.382;7.078;2024-02-26T05:08:36;5.30;99.90
46900;DHT22;32647;49.382;7.078;2024-02-26T05:11:23;5.30;99.90
46900;DHT22;32647;49.382;7.078;2024-02-26T05:14:09;5.30;99.90
46900;DHT22;32647;49.382;7.078;2024-02-26T05:16:55;5.30;99.90
46900;DHT22;32647;49.382;7.078;2024-02-26T05:19:41;5.30;99.90
46900;DHT22;32647;49.382;7.078;2024-02-26T05:22:27;5.30;99.90
46900;DHT22;32647;49.382;7.078;2024-02-26T05:25:16;5.40;99.90
46900;DHT22;32647;49.382;7.078;2024-02-26T05:28:03;5.30;99.90
46900;DHT22;32647;49.382;7.078;2024-02-26T05:30:49;5.30;99.90
46900;DHT22;32647;49.382;7.078;2024-02-26T05:33:35;5.30;99.90
46900;DHT22;32647;49.382;7.078;2024-02-26T05:36:21;5.40;99.90
46900;DHT22;32647;49.382;7.078;2024-02-26T05:39:08;5.40;99.90
46900;DHT22;32647;49.382;7.078;2024-02-26T05:41:54;5.40;99.90
46900;DHT22;32647;49.382;7.078;2024-02-26T05:44:39;5.40;99.90
46900;DHT22;32647;49.382;7.078;2024-02-26T05:47:25;5.40;99.90
46900;DHT22;32647;49.382;7.078;2024-02-26T05:50:11;5.40;99.90
46900;DHT22;32647;49.382;7.078;2024-02-26T05:52:58;5.40;99.90
46900;DHT22;32647;49.382;7.078;2024-02-26T05:55:44;5.40;99.90
46900;DHT22;32647;49.382;7.078;2024-02-26T05:58:30;5.40;99.90
46900;DHT22;32647;49.382;7.078;2024-02-26T06:01:16;5.40;99.90
46900;DHT22;32647;49.382;7.078;2024-02-26T06:04:03;5.40;99.90
46900;DHT22;32647;49.382;7.078;2024-02-26T06:06:49;5.40;99.90
46900;DHT22;32647;49.382;7.078;2024-02-26T06:09:35;5.40;99.90
46900;DHT22;32647;49.382;7.078;2024-02-26T06:12:21;5.40;99.90
46900;DHT22;32647;49.382;7.078;2024-02-26T06:15:08;5.40;99.90
46900;DHT22;32647;49.382;7.078;2024-02-26T06:17:54;5.40;99.90
46900;DHT22;32647;49.382;7.078;2024-02-26T06:20:40;5.40;99.90
46900;DHT22;32647;49.382;7.078;2024-02-26T06:23:26;5.40;99.90
46900;DHT22;32647;49.382;7.078;2024-02-26T06:26:12;5.40;99.90
46900;DHT22;32647;49.382;7.078;2024-02-26T06:28:59;5.40;99.90
46900;DHT22;32647;49.382;7.078;2024-02-26T06:31:45;5.40;99.90
46900;DHT22;32647;49.382;7.078;2024-02-26T06:34:31;5.50;99.90
46900;DHT22;32647;49.382;7.078;2024-02-26T06:37:16;5.50;99.90
46900;DHT22;32647;49.382;7.078;2024-02-26T06:40:03;5.50;99.90
46900;DHT22;32647;49.382;7.078;2024-02-26T06:42:49;5.50;99.90
46900;DHT22;32647;49.382;7.078;2024-02-26T06:45:36;5.50;99.90
46900;DHT22;32647;49.382;7.078;2024-02-26T06:48:23;5.50;99.90
46900;DHT22;32647;49.382;7.078;2024-02-26T06:51:09;5.50;99.90
46900;DHT22;32647;49.382;7.078;2024-02-26T06:53:55;5.50;99.90
46900;DHT22;32647;49.382;7.078;2024-02-26T06:56:41;5.60;99.90
46900;DHT22;32647;49.382;7.078;2024-02-26T06:59:27;5.60;99.90
46900;DHT22;32647;49.382;7.078;2024-02-26T07:02:16;5.50;99.90
46900;DHT22;32647;49.382;7.078;2024-02-26T07:05:02;5.60;99.90
46900;DHT22;32647;49.382;7.078;2024-02-26T07:07:49;5.60;99.90
46900;DHT22;32647;49.382;7.078;2024-02-26T07:10:35;5.60;99.90
46900;DHT22;32647;49.382;7.078;2024-02-26T07:13:20;5.60;99.90
46900;DHT22;32647;49.382;7.078;2024-02-26T07:16:09;5.60;99.90
46900;DHT22;32647;49.382;7.078;2024-02-26T07:18:55;5.70;99.90
46900;DHT22;32647;49.382;7.078;2024-02-26T07:21:42;5.70;99.90
46900;DHT22;32647;49.382;7.078;2024-02-26T07:24:28;5.70;99.90
46900;DHT22;32647;49.382;7.078;2024-02-26T07:27:14;5.70;99.90
46900;DHT22;32647;49.382;7.078;2024-02-26T07:30:00;5.80;99.90
46900;DHT22;32647;49.382;7.078;2024-02-26T07:32:46;5.80;99.90
46900;DHT22;32647;49.382;7.078;2024-02-26T07:35:32;5.80;99.90
46900;DHT22;32647;49.382;7.078;2024-02-26T07:38:19;5.80;99.90
46900;DHT22;32647;49.382;7.078;2024-02-26T07:41:05;5.80;99.90
46900;DHT22;32647;49.382;7.078;2024-02-26T07:43:51;5.90;99.90
46900;DHT22;32647;49.382;7.078;2024-02-26T07:46:37;5.90;99.90
46900;DHT22;32647;49.382;7.078;2024-02-26T07:49:22;5.90;99.90
46900;DHT22;32647;49.382;7.078;2024-02-26T07:52:08;5.90;99.90
46900;DHT22;32647;49.382;7.078;2024-02-26T07:54:54;6.00;99.90
46900;DHT22;32647;49.382;7.078;2024-02-26T07:57:43;6.00;99.90
46900;DHT22;32647;49.382;7.078;2024-02-26T08:00:29;6.10;99.90
46900;DHT22;32647;49.382;7.078;2024-02-26T08:03:15;6.10;99.90
46900;DHT22;32647;49.382;7.078;2024-02-26T08:06:01;6.10;99.90
46900;DHT22;32647;49.382;7.078;2024-02-26T08:08:47;6.30;99.90
46900;DHT22;32647;49.382;7.078;2024-02-26T08:11:34;6.30;99.90
46900;DHT22;32647;49.382;7.078;2024-02-26T08:14:19;6.30;99.90
46900;DHT22;32647;49.382;7.078;2024-02-26T08:17:05;6.30;99.90
46900;DHT22;32647;49.382;7.078;2024-02-26T08:19:51;6.40;99.90
46900;DHT22;32647;49.382;7.078;2024-02-26T08:22:37;6.60;99.90
46900;DHT22;32647;49.382;7.078;2024-02-26T08:25:24;6.80;99.90
46900;DHT22;32647;49.382;7.078;2024-02-26T08:28:11;6.90;99.90
46900;DHT22;32647;49.382;7.078;2024-02-26T08:30:58;7.00;99.90
46900;DHT22;32647;49.382;7.078;2024-02-26T08:33:44;7.00;99.90
46900;DHT22;32647;49.382;7.078;2024-02-26T08:36:32;7.00;99.90
46900;DHT22;32647;49.382;7.078;2024-02-26T08:39:19;7.10;99.90
46900;DHT22;32647;49.382;7.078;2024-02-26T08:42:05;7.20;99.90
46900;DHT22;32647;49.382;7.078;2024-02-26T08:44:51;7.30;99.90
46900;DHT22;32647;49.382;7.078;2024-02-26T08:47:37;7.30;99.90
46900;DHT22;32647;49.382;7.078;2024-02-26T08:50:23;7.30;99.90
46900;DHT22;32647;49.382;7.078;2024-02-26T08:53:09;7.20;99.90
46900;DHT22;32647;49.382;7.078;2024-02-26T08:55:54;7.20;99.90
46900;DHT22;32647;49.382;7.078;2024-02-26T08:58:40;7.10;99.90
46900;DHT22;32647;49.382;7.078;2024-02-26T09:01:26;7.20;99.90
46900;DHT22;32647;49.382;7.078;2024-02-26T09:04:12;7.20;99.90
46900;DHT22;32647;49.382;7.078;2024-02-26T09:06:58;7.20;99.90
46900;DHT22;32647;49.382;7.078;2024-02-26T09:09:44;7.20;99.90
46900;DHT22;32647;49.382;7.078;2024-02-26T09:12:30;7.30;99.90
46900;DHT22;32647;49.382;7.078;2024-02-26T09:15:16;7.30;99.90
46900;DHT22;32647;49.382;7.078;2024-02-26T09:18:02;7.40;99.90
46900;DHT22;32647;49.382;7.078;2024-02-26T09:20:48;7.50;99.90
46900;DHT22;32647;49.382;7.078;2024-02-26T09:23:36;7.60;99.90
46900;DHT22;32647;49.382;7.078;2024-02-26T09:26:22;7.90;99.90
46900;DHT22;32647;49.382;7.078;2024-02-26T09:29:08;8.00;99.90
46900;DHT22;32647;49.382;7.078;2024-02-26T09:31:54;8.10;99.90
46900;DHT22;32647;49.382;7.078;2024-02-26T09:34:40;8.10;99.90
46900;DHT22;32647;49.382;7.078;2024-02-26T09:37:27;8.20;99.90
46900;DHT22;32647;49.382;7.078;2024-02-26T09:40:13;8.20;99.90
46900;DHT22;32647;49.382;7.078;2024-02-26T09:43:04;8.20;99.90
46900;DHT22;32647;49.382;7.078;2024-02-26T09:45:53;8.40;99.90
46900;DHT22;32647;49.382;7.078;2024-02-26T09:48:39;8.50;99.90
46900;DHT22;32647;49.382;7.078;2024-02-26T09:51:26;8.70;99.90
46900;DHT22;32647;49.382;7.078;2024-02-26T09:54:12;8.90;99.90
46900;DHT22;32647;49.382;7.078;2024-02-26T09:57:00;9.00;99.90
46900;DHT22;32647;49.382;7.078;2024-02-26T09:59:49;9.00;99.90
46900;DHT22;32647;49.382;7.078;2024-02-26T10:02:36;9.00;99.90
46900;DHT22;32647;49.382;7.078;2024-02-26T10:05:24;9.30;99.90
46900;DHT22;32647;49.382;7.078;2024-02-26T10:08:11;9.60;99.90
46900;DHT22;32647;49.382;7.078;2024-02-26T10:10:58;9.60;99.90
46900;DHT22;32647;49.382;7.078;2024-02-26T10:13:44;9.60;99.90
46900;DHT22;32647;49.382;7.078;2024-02-26T10:16:30;9.80;99.90
46900;DHT22;32647;49.382;7.078;2024-02-26T10:19:29;9.80;99.90
46900;DHT22;32647;49.382;7.078;2024-02-26T10:22:15;9.60;99.90
46900;DHT22;32647;49.382;7.078;2024-02-26T10:25:01;9.50;99.90
46900;DHT22;32647;49.382;7.078;2024-02-26T10:27:47;9.40;99.90
46900;DHT22;32647;49.382;7.078;2024-02-26T10:30:36;9.40;99.90
46900;DHT22;32647;49.382;7.078;2024-02-26T10:33:23;9.50;99.90
46900;DHT22;32647;49.382;7.078;2024-02-26T10:36:10;9.60;99.90
46900;DHT22;32647;49.382;7.078;2024-02-26T10:38:56;9.80;99.90
46900;DHT22;32647;49.382;7.078;2024-02-26T10:41:43;10.00;99.90
46900;DHT22;32647;49.382;7.078;2024-02-26T10:44:30;10.00;99.90
46900;DHT22;32647;49.382;7.078;2024-02-26T10:47:16;9.80;99.90
46900;DHT22;32647;49.382;7.078;2024-02-26T10:50:04;10.00;99.90
46900;DHT22;32647;49.382;7.078;2024-02-26T10:52:55;10.10;99.90
46900;DHT22;32647;49.382;7.078;2024-02-26T10:55:43;10.60;99.90
46900;DHT22;32647;49.382;7.078;2024-02-26T10:58:31;10.80;99.90
46900;DHT22;32647;49.382;7.078;2024-02-26T11:01:18;11.10;99.90
46900;DHT22;32647;49.382;7.078;2024-02-26T11:04:06;11.00;99.90
46900;DHT22;32647;49.382;7.078;2024-02-26T11:06:54;10.70;99.90
46900;DHT22;32647;49.382;7.078;2024-02-26T11:09:44;10.70;99.90
46900;DHT22;32647;49.382;7.078;2024-02-26T11:12:32;11.00;99.90
46900;DHT22;32647;49.382;7.078;2024-02-26T11:15:21;10.90;99.90
46900;DHT22;32647;49.382;7.078;2024-02-26T11:18:08;10.80;99.90
46900;DHT22;32647;49.382;7.078;2024-02-26T11:20:54;11.00;99.90
46900;DHT22;32647;49.382;7.078;2024-02-26T11:23:43;10.90;99.90
46900;DHT22;32647;49.382;7.078;2024-02-26T11:26:29;10.80;99.90
46900;DHT22;32647;49.382;7.078;2024-02-26T11:29:19;10.90;99.90
46900;DHT22;32647;49.382;7.078;2024-02-26T11:32:07;10.90;99.90
46900;DHT22;32647;49.382;7.078;2024-02-26T11:34:54;11.10;99.90
46900;DHT22;32647;49.382;7.078;2024-02-26T11:37:40;11.40;99.90
46900;DHT22;32647;49.382;7.078;2024-02-26T11:40:27;11.30;99.90
46900;DHT22;32647;49.382;7.078;2024-02-26T11:43:13;11.30;99.90
46900;DHT22;32647;49.382;7.078;2024-02-26T11:45:59;11.00;99.90
46900;DHT22;32647;49.382;7.078;2024-02-26T11:48:45;10.80;99.90
46900;DHT22;32647;49.382;7.078;2024-02-26T11:51:34;10.90;99.90
46900;DHT22;32647;49.382;7.078;2024-02-26T11:57:37;10.80;99.90
46900;DHT22;32647;49.382;7.078;2024-02-26T12:00:23;10.80;99.90
46900;DHT22;32647;49.382;7.078;2024-02-26T12:03:09;10.90;99.90
46900;DHT22;32647;49.382;7.078;2024-02-26T12:05:57;11.00;99.90
46900;DHT22;32647;49.382;7.078;2024-02-26T12:08:44;11.10;99.90
46900;DHT22;32647;49.382;7.078;2024-02-26T12:11:30;11.10;99.90
46900;DHT22;32647;49.382;7.078;2024-02-26T12:14:18;11.30;99.90
46900;DHT22;32647;49.382;7.078;2024-02-26T12:17:07;11.30;99.90
46900;DHT22;32647;49.382;7.078;2024-02-26T12:19:54;11.50;99.90
46900;DHT22;32647;49.382;7.078;2024-02-26T12:22:45;11.30;99.90
46900;DHT22;32647;49.382;7.078;2024-02-26T12:25:33;11.40;99.90
46900;DHT22;32647;49.382;7.078;2024-02-26T12:28:19;11.60;99.90
46900;DHT22;32647;49.382;7.078;2024-02-26T12:31:05;11.80;99.90
46900;DHT22;32647;49.382;7.078;2024-02-26T12:33:51;12.30;99.90
46900;DHT22;32647;49.382;7.078;2024-02-26T12:36:37;12.60;99.90
46900;DHT22;32647;49.382;7.078;2024-02-26T12:39:24;12.80;99.90
46900;DHT22;32647;49.382;7.078;2024-02-26T12:42:11;12.70;99.90
46900;DHT22;32647;49.382;7.078;2024-02-26T12:44:57;12.90;99.90
46900;DHT22;32647;49.382;7.078;2024-02-26T12:47:43;12.80;99.90
46900;DHT22;32647;49.382;7.078;2024-02-26T12:50:31;12.70;99.90
46900;DHT22;32647;49.382;7.078;2024-02-26T12:53:17;12.50;99.90
46900;DHT22;32647;49.382;7.078;2024-02-26T12:56:05;12.40;99.90
46900;DHT22;32647;49.382;7.078;2024-02-26T12:58:53;12.00;99.90
46900;DHT22;32647;49.382;7.078;2024-02-26T13:01:39;12.00;99.90
46900;DHT22;32647;49.382;7.078;2024-02-26T13:04:29;12.20;99.90
46900;DHT22;32647;49.382;7.078;2024-02-26T13:07:15;12.20;99.90
46900;DHT22;32647;49.382;7.078;2024-02-26T13:10:01;12.50;99.90
46900;DHT22;32647;49.382;7.078;2024-02-26T13:12:49;12.50;99.90
46900;DHT22;32647;49.382;7.078;2024-02-26T13:15:38;12.30;99.90
46900;DHT22;32647;49.382;7.078;2024-02-26T13:18:27;12.20;99.90
46900;DHT22;32647;49.382;7.078;2024-02-26T13:21:15;12.20;99.90
46900;DHT22;32647;49.382;7.078;2024-02-26T13:24:01;12.10;99.90
46900;DHT22;32647;49.382;7.078;2024-02-26T13:26:47;12.00;99.90
46900;DHT22;32647;49.382;7.078;2024-02-26T13:29:33;12.30;99.90
46900;DHT22;32647;49.382;7.078;2024-02-26T13:32:20;12.40;99.90
46900;DHT22;32647;49.382;7.078;2024-02-26T13:35:13;12.70;99.90
46900;DHT22;32647;49.382;7.078;2024-02-26T13:37:59;12.60;99.90
46900;DHT22;32647;49.382;7.078;2024-02-26T13:40:45;12.10;99.90
46900;DHT22;32647;49.382;7.078;2024-02-26T13:43:31;12.10;99.90
46900;DHT22;32647;49.382;7.078;2024-02-26T13:46:17;12.20;99.90
46900;DHT22;32647;49.382;7.078;2024-02-26T13:49:03;12.40;99.90
46900;DHT22;32647;49.382;7.078;2024-02-26T13:51:49;12.30;99.90
46900;DHT22;32647;49.382;7.078;2024-02-26T13:54:35;12.10;99.90
46900;DHT22;32647;49.382;7.078;2024-02-26T13:57:21;11.90;99.90
46900;DHT22;32647;49.382;7.078;2024-02-26T14:00:08;11.90;99.90
46900;DHT22;32647;49.382;7.078;2024-02-26T14:02:55;11.70;99.90
46900;DHT22;32647;49.382;7.078;2024-02-26T14:05:41;11.60;99.90
46900;DHT22;32647;49.382;7.078;2024-02-26T14:08:27;11.60;99.90
46900;DHT22;32647;49.382;7.078;2024-02-26T14:11:13;11.40;99.90
46900;DHT22;32647;49.382;7.078;2024-02-26T14:13:59;11.20;99.90
46900;DHT22;32647;49.382;7.078;2024-02-26T14:16:45;11.30;99.90
46900;DHT22;32647;49.382;7.078;2024-02-26T14:19:31;11.30;99.90
46900;DHT22;32647;49.382;7.078;2024-02-26T14:22:17;11.50;99.90
46900;DHT22;32647;49.382;7.078;2024-02-26T14:25:03;11.40;99.90
46900;DHT22;32647;49.382;7.078;2024-02-26T14:27:49;11.30;99.90
46900;DHT22;32647;49.382;7.078;2024-02-26T14:30:35;11.30;99.90
46900;DHT22;32647;49.382;7.078;2024-02-26T14:33:21;11.10;99.90
46900;DHT22;32647;49.382;7.078;2024-02-26T14:36:08;11.10;99.90
46900;DHT22;32647;49.382;7.078;2024-02-26T14:38:54;11.20;99.90
46900;DHT22;32647;49.382;7.078;2024-02-26T14:41:40;11.20;99.90
46900;DHT22;32647;49.382;7.078;2024-02-26T14:44:26;11.20;99.90
46900;DHT22;32647;49.382;7.078;2024-02-26T14:47:12;11.00;99.90
46900;DHT22;32647;49.382;7.078;2024-02-26T14:49:58;10.90;99.90
46900;DHT22;32647;49.382;7.078;2024-02-26T14:52:44;10.80;99.90
46900;DHT22;32647;49.382;7.078;2024-02-26T14:55:30;10.70;99.90
46900;DHT22;32647;49.382;7.078;2024-02-26T14:58:16;10.70;99.90
46900;DHT22;32647;49.382;7.078;2024-02-26T15:01:02;10.70;99.90
46900;DHT22;32647;49.382;7.078;2024-02-26T15:03:49;10.70;99.90
46900;DHT22;32647;49.382;7.078;2024-02-26T15:06:38;10.70;99.90
46900;DHT22;32647;49.382;7.078;2024-02-26T15:09:24;10.70;99.90
46900;DHT22;32647;49.382;7.078;2024-02-26T15:12:10;10.60;99.90
46900;DHT22;32647;49.382;7.078;2024-02-26T15:14:56;10.60;99.90
46900;DHT22;32647;49.382;7.078;2024-02-26T15:17:42;10.50;99.90
46900;DHT22;32647;49.382;7.078;2024-02-26T15:20:29;10.40;99.90
46900;DHT22;32647;49.382;7.078;2024-02-26T15:23:16;10.90;99.90
46900;DHT22;32647;49.382;7.078;2024-02-26T15:26:03;11.10;99.90
46900;DHT22;32647;49.382;7.078;2024-02-26T15:28:49;11.00;99.90
46900;DHT22;32647;49.382;7.078;2024-02-26T15:31:35;11.10;99.90
46900;DHT22;32647;49.382;7.078;2024-02-26T15:34:21;11.30;99.90
46900;DHT22;32647;49.382;7.078;2024-02-26T15:37:07;11.30;99.90
46900;DHT22;32647;49.382;7.078;2024-02-26T15:39:53;11.00;99.90
46900;DHT22;32647;49.382;7.078;2024-02-26T15:42:39;10.70;99.90
46900;DHT22;32647;49.382;7.078;2024-02-26T15:45:25;10.60;99.90
46900;DHT22;32647;49.382;7.078;2024-02-26T15:48:11;10.30;99.90
46900;DHT22;32647;49.382;7.078;2024-02-26T15:50:57;10.20;99.90
46900;DHT22;32647;49.382;7.078;2024-02-26T15:53:43;10.00;99.90
46900;DHT22;32647;49.382;7.078;2024-02-26T15:56:29;10.00;99.90
46900;DHT22;32647;49.382;7.078;2024-02-26T15:59:16;10.00;99.90
46900;DHT22;32647;49.382;7.078;2024-02-26T16:02:02;10.00;99.90
46900;DHT22;32647;49.382;7.078;2024-02-26T16:04:48;9.90;99.90
46900;DHT22;32647;49.382;7.078;2024-02-26T16:07:40;9.90;99.90
46900;DHT22;32647;49.382;7.078;2024-02-26T16:10:27;9.90;99.90
46900;DHT22;32647;49.382;7.078;2024-02-26T16:13:15;9.80;99.90
46900;DHT22;32647;49.382;7.078;2024-02-26T16:16:04;9.70;99.90
46900;DHT22;32647;49.382;7.078;2024-02-26T16:18:56;9.60;99.90
46900;DHT22;32647;49.382;7.078;2024-02-26T16:21:50;9.70;99.90
46900;DHT22;32647;49.382;7.078;2024-02-26T16:24:36;9.60;99.90
46900;DHT22;32647;49.382;7.078;2024-02-26T16:27:22;9.60;99.90
46900;DHT22;32647;49.382;7.078;2024-02-26T16:30:09;9.50;99.90
46900;DHT22;32647;49.382;7.078;2024-02-26T16:32:55;9.50;99.90
46900;DHT22;32647;49.382;7.078;2024-02-26T16:35:43;9.40;99.90
46900;DHT22;32647;49.382;7.078;2024-02-26T16:38:29;9.40;99.90
46900;DHT22;32647;49.382;7.078;2024-02-26T16:41:15;9.30;99.90
46900;DHT22;32647;49.382;7.078;2024-02-26T16:44:01;9.30;99.90
46900;DHT22;32647;49.382;7.078;2024-02-26T16:46:47;9.20;99.90
46900;DHT22;32647;49.382;7.078;2024-02-26T16:49:33;9.20;99.90
46900;DHT22;32647;49.382;7.078;2024-02-26T16:52:20;9.20;99.90
46900;DHT22;32647;49.382;7.078;2024-02-26T16:55:06;9.00;99.90
46900;DHT22;32647;49.382;7.078;2024-02-26T16:57:53;8.90;99.90
46900;DHT22;32647;49.382;7.078;2024-02-26T17:00:39;8.80;99.90
46900;DHT22;32647;49.382;7.078;2024-02-26T17:03:25;8.80;99.90
46900;DHT22;32647;49.382;7.078;2024-02-26T17:06:11;8.70;99.90
46900;DHT22;32647;49.382;7.078;2024-02-26T17:08:57;8.60;99.90
46900;DHT22;32647;49.382;7.078;2024-02-26T17:11:43;8.60;99.90
46900;DHT22;32647;49.382;7.078;2024-02-26T17:14:30;8.60;99.90
46900;DHT22;32647;49.382;7.078;2024-02-26T17:17:17;8.50;99.90
46900;DHT22;32647;49.382;7.078;2024-02-26T17:20:03;8.40;99.90
46900;DHT22;32647;49.382;7.078;2024-02-26T17:22:53;8.50;99.90
46900;DHT22;32647;49.382;7.078;2024-02-26T17:25:39;8.40;99.90
46900;DHT22;32647;49.382;7.078;2024-02-26T17:28:25;8.30;99.90
46900;DHT22;32647;49.382;7.078;2024-02-26T17:31:12;8.30;99.90
46900;DHT22;32647;49.382;7.078;2024-02-26T17:33:58;8.20;99.90
46900;DHT22;32647;49.382;7.078;2024-02-26T17:36:44;8.20;99.90
46900;DHT22;32647;49.382;7.078;2024-02-26T17:39:30;8.20;99.90
46900;DHT22;32647;49.382;7.078;2024-02-26T17:42:16;8.20;99.90
46900;DHT22;32647;49.382;7.078;2024-02-26T17:45:03;8.30;99.90
46900;DHT22;32647;49.382;7.078;2024-02-26T17:47:49;8.30;99.90